sensor_id;sensor_type;location;lat;lon;timestamp;temperature;humidity
20068;DHT22;10194;50.824;7.134;2023-08-12T00:01:42;20.40;99.90
20068;DHT22;10194;50.824;7.134;2023-08-12T00:04:08;20.50;99.90
20068;DHT22;10194;50.824;7.134;2023-08-12T00:06:34;20.50;99.90
20068;DHT22;10194;50.824;7.134;2023-08-12T00:09:00;20.50;99.90
20068;DHT22;10194;50.824;7.134;2023-08-12T00:11:25;20.40;99.90
20068;DHT22;10194;50.824;7.134;2023-08-12T00:13:51;20.40;99.90
20068;DHT22;10194;50.824;7.134;2023-08-12T00:16:17;20.30;99.90
20068;DHT22;10194;50.824;7.134;2023-08-12T00:18:42;20.30;99.90
20068;DHT22;10194;50.824;7.134;2023-08-12T00:21:09;20.30;99.90
20068;DHT22;10194;50.824;7.134;2023-08-12T00:23:38;20.30;99.90
20068;DHT22;10194;50.824;7.134;2023-08-12T00:26:09;20.30;99.90
20068;DHT22;10194;50.824;7.134;2023-08-12T00:28:35;20.30;99.90
20068;DHT22;10194;50.824;7.134;2023-08-12T00:31:02;20.20;99.90
20068;DHT22;10194;50.824;7.134;2023-08-12T00:33:28;20.30;99.90
20068;DHT22;10194;50.824;7.134;2023-08-12T00:35:54;20.30;99.90
20068;DHT22;10194;50.824;7.134;2023-08-12T00:38:20;20.30;99.90
20068;DHT22;10194;50.824;7.134;2023-08-12T00:40:46;20.30;99.90
20068;DHT22;10194;50.824;7.134;2023-08-12T00:43:12;20.30;99.90
20068;DHT22;10194;50.824;7.134;2023-08-12T00:45:38;20.30;99.90
20068;DHT22;10194;50.824;7.134;2023-08-12T00:48:04;20.30;99.90
20068;DHT22;10194;50.824;7.134;2023-08-12T00:50:31;20.30;99.90
20068;DHT22;10194;50.824;7.134;2023-08-12T00:52:58;20.20;99.90
20068;DHT22;10194;50.824;7.134;2023-08-12T00:55:24;20.20;99.90
20068;DHT22;10194;50.824;7.134;2023-08-12T00:57:50;20.10;99.90
20068;DHT22;10194;50.824;7.134;2023-08-12T01:00:17;20.20;99.90
20068;DHT22;10194;50.824;7.134;2023-08-12T01:02:48;20.10;99.90
20068;DHT22;10194;50.824;7.134;2023-08-12T01:05:14;20.10;99.90
20068;DHT22;10194;50.824;7.134;2023-08-12T01:07:43;20.10;99.90
20068;DHT22;10194;50.824;7.134;2023-08-12T01:10:10;20.10;99.90
20068;DHT22;10194;50.824;7.134;2023-08-12T01:13:11;20.10;99.90
20068;DHT22;10194;50.824;7.134;2023-08-12T01:15:44;20.00;99.90
20068;DHT22;10194;50.824;7.134;2023-08-12T01:18:11;20.00;99.90
20068;DHT22;10194;50.824;7.134;2023-08-12T01:20:37;20.00;99.90
20068;DHT22;10194;50.824;7.134;2023-08-12T01:23:15;20.00;99.90
20068;DHT22;10194;50.824;7.134;2023-08-12T01:25:42;20.00;99.90
20068;DHT22;10194;50.824;7.134;2023-08-12T01:28:08;20.00;99.90
20068;DHT22;10194;50.824;7.134;2023-08-12T01:31:25;20.00;99.90
20068;DHT22;10194;50.824;7.134;2023-08-12T01:33:43;19.90;99.90
20068;DHT22;10194;50.824;7.134;2023-08-12T01:36:18;20.00;99.90
20068;DHT22;10194;50.824;7.134;2023-08-12T01:38:45;20.00;99.90
20068;DHT22;10194;50.824;7.134;2023-08-12T01:41:14;20.00;99.90
20068;DHT22;10194;50.824;7.134;2023-08-12T01:43:41;20.00;99.90
20068;DHT22;10194;50.824;7.134;2023-08-12T01:46:07;20.00;99.90
20068;DHT22;10194;50.824;7.134;2023-08-12T01:48:33;20.00;99.90
20068;DHT22;10194;50.824;7.134;2023-08-12T01:50:59;19.90;99.90
20068;DHT22;10194;50.824;7.134;2023-08-12T01:53:25;19.90;99.90
20068;DHT22;10194;50.824;7.134;2023-08-12T01:55:52;19.90;99.90
20068;DHT22;10194;50.824;7.134;2023-08-12T01:58:18;19.90;99.90
20068;DHT22;10194;50.824;7.134;2023-08-12T02:00:43;19.90;99.90
20068;DHT22;10194;50.824;7.134;2023-08-12T02:03:09;19.90;99.90
20068;DHT22;10194;50.824;7.134;2023-08-12T02:05:35;19.90;99.90
20068;DHT22;10194;50.824;7.134;2023-08-12T02:08:03;19.90;99.90
20068;DHT22;10194;50.824;7.134;2023-08-12T02:10:30;19.90;99.90
20068;DHT22;10194;50.824;7.134;2023-08-12T02:12:55;19.80;99.90
20068;DHT22;10194;50.824;7.134;2023-08-12T02:15:21;19.90;99.90
20068;DHT22;10194;50.824;7.134;2023-08-12T02:17:47;19.80;99.90
20068;DHT22;10194;50.824;7.134;2023-08-12T02:20:13;19.90;99.90
20068;DHT22;10194;50.824;7.134;2023-08-12T02:22:38;19.80;99.90
20068;DHT22;10194;50.824;7.134;2023-08-12T02:25:04;19.80;99.90
20068;DHT22;10194;50.824;7.134;2023-08-12T02:27:30;19.80;99.90
20068;DHT22;10194;50.824;7.134;2023-08-12T02:29:56;19.70;99.90
20068;DHT22;10194;50.824;7.134;2023-08-12T02:32:22;19.70;99.90
20068;DHT22;10194;50.824;7.134;2023-08-12T02:34:48;19.70;99.90
20068;DHT22;10194;50.824;7.134;2023-08-12T02:37:13;19.70;99.90
20068;DHT22;10194;50.824;7.134;2023-08-12T02:39:39;19.70;99.90
20068;DHT22;10194;50.824;7.134;2023-08-12T02:42:05;19.70;99.90
20068;DHT22;10194;50.824;7.134;2023-08-12T02:44:31;19.70;99.90
20068;DHT22;10194;50.824;7.134;2023-08-12T02:46:56;19.70;99.90
20068;DHT22;10194;50.824;7.134;2023-08-12T02:49:22;19.60;99.90
20068;DHT22;10194;50.824;7.134;2023-08-12T02:51:48;19.60;99.90
20068;DHT22;10194;50.824;7.134;2023-08-12T02:54:14;19.70;99.90
20068;DHT22;10194;50.824;7.134;2023-08-12T02:56:39;19.60;99.90
20068;DHT22;10194;50.824;7.134;2023-08-12T02:59:05;19.60;99.90
20068;DHT22;10194;50.824;7.134;2023-08-12T03:01:31;19.60;99.90
20068;DHT22;10194;50.824;7.134;2023-08-12T03:03:57;19.60;99.90
20068;DHT22;10194;50.824;7.134;2023-08-12T03:06:23;19.70;99.90
20068;DHT22;10194;50.824;7.134;2023-08-12T03:08:49;19.60;99.90
20068;DHT22;10194;50.824;7.134;2023-08-12T03:11:14;19.60;99.90
20068;DHT22;10194;50.824;7.134;2023-08-12T03:13:41;19.60;99.90
20068;DHT22;10194;50.824;7.134;2023-08-12T03:16:14;19.60;99.90
20068;DHT22;10194;50.824;7.134;2023-08-12T03:18:40;19.60;99.90
20068;DHT22;10194;50.824;7.134;2023-08-12T03:21:07;19.60;99.90
20068;DHT22;10194;50.824;7.134;2023-08-12T03:23:37;19.60;99.90
20068;DHT22;10194;50.824;7.134;2023-08-12T03:26:03;19.60;99.90
20068;DHT22;10194;50.824;7.134;2023-08-12T03:28:30;19.60;99.90
20068;DHT22;10194;50.824;7.134;2023-08-12T03:30:56;19.60;99.90
20068;DHT22;10194;50.824;7.134;2023-08-12T03:33:22;19.60;99.90
20068;DHT22;10194;50.824;7.134;2023-08-12T03:35:49;19.70;99.90
20068;DHT22;10194;50.824;7.134;2023-08-12T03:38:15;19.60;99.90
20068;DHT22;10194;50.824;7.134;2023-08-12T03:40:41;19.60;99.90
20068;DHT22;10194;50.824;7.134;2023-08-12T03:43:08;19.60;99.90
20068;DHT22;10194;50.824;7.134;2023-08-12T03:45:41;19.60;99.90
20068;DHT22;10194;50.824;7.134;2023-08-12T03:48:08;19.60;99.90
20068;DHT22;10194;50.824;7.134;2023-08-12T03:50:37;19.70;99.90
20068;DHT22;10194;50.824;7.134;2023-08-12T03:53:04;19.60;99.90
20068;DHT22;10194;50.824;7.134;2023-08-12T03:55:31;19.60;99.90
20068;DHT22;10194;50.824;7.134;2023-08-12T03:57:58;19.60;99.90
20068;DHT22;10194;50.824;7.134;2023-08-12T04:00:24;19.50;99.90
20068;DHT22;10194;50.824;7.134;2023-08-12T04:02:50;19.50;99.90
20068;DHT22;10194;50.824;7.134;2023-08-12T04:05:16;19.50;99.90
20068;DHT22;10194;50.824;7.134;2023-08-12T04:07:42;19.50;99.90
20068;DHT22;10194;50.824;7.134;2023-08-12T04:10:08;19.50;99.90
20068;DHT22;10194;50.824;7.134;2023-08-12T04:12:34;19.50;99.90
20068;DHT22;10194;50.824;7.134;2023-08-12T04:15:00;19.50;99.90
20068;DHT22;10194;50.824;7.134;2023-08-12T04:17:29;19.50;99.90
20068;DHT22;10194;50.824;7.134;2023-08-12T04:19:55;19.40;99.90
20068;DHT22;10194;50.824;7.134;2023-08-12T04:22:21;19.40;99.90
20068;DHT22;10194;50.824;7.134;2023-08-12T04:24:47;19.40;99.90
20068;DHT22;10194;50.824;7.134;2023-08-12T04:27:12;19.30;99.90
20068;DHT22;10194;50.824;7.134;2023-08-12T04:29:38;19.30;99.90
20068;DHT22;10194;50.824;7.134;2023-08-12T04:32:05;19.40;99.90
20068;DHT22;10194;50.824;7.134;2023-08-12T04:34:30;19.30;99.90
20068;DHT22;10194;50.824;7.134;2023-08-12T04:36:56;19.30;99.90
20068;DHT22;10194;50.824;7.134;2023-08-12T04:39:22;19.40;99.90
20068;DHT22;10194;50.824;7.134;2023-08-12T04:41:48;19.40;99.90
20068;DHT22;10194;50.824;7.134;2023-08-12T04:44:13;19.30;99.90
20068;DHT22;10194;50.824;7.134;2023-08-12T04:46:39;19.30;99.90
20068;DHT22;10194;50.824;7.134;2023-08-12T04:49:05;19.30;99.90
20068;DHT22;10194;50.824;7.134;2023-08-12T04:51:31;19.30;99.90
20068;DHT22;10194;50.824;7.134;2023-08-12T04:53:57;19.30;99.90
20068;DHT22;10194;50.824;7.134;2023-08-12T04:56:23;19.30;99.90
20068;DHT22;10194;50.824;7.134;2023-08-12T04:58:49;19.30;99.90
20068;DHT22;10194;50.824;7.134;2023-08-12T05:01:15;19.30;99.90
20068;DHT22;10194;50.824;7.134;2023-08-12T05:03:41;19.30;99.90
20068;DHT22;10194;50.824;7.134;2023-08-12T05:06:06;19.30;99.90
20068;DHT22;10194;50.824;7.134;2023-08-12T05:08:32;19.30;99.90
20068;DHT22;10194;50.824;7.134;2023-08-12T05:10:58;19.30;99.90
20068;DHT22;10194;50.824;7.134;2023-08-12T05:13:24;19.40;99.90
20068;DHT22;10194;50.824;7.134;2023-08-12T05:15:50;19.50;99.90
20068;DHT22;10194;50.824;7.134;2023-08-12T05:18:16;19.60;99.90
20068;DHT22;10194;50.824;7.134;2023-08-12T05:20:42;19.70;99.90
20068;DHT22;10194;50.824;7.134;2023-08-12T05:23:08;19.90;99.90
20068;DHT22;10194;50.824;7.134;2023-08-12T05:25:34;19.90;99.90
20068;DHT22;10194;50.824;7.134;2023-08-12T05:28:00;20.00;99.90
20068;DHT22;10194;50.824;7.134;2023-08-12T05:30:25;20.10;99.90
20068;DHT22;10194;50.824;7.134;2023-08-12T05:32:51;20.10;99.90
20068;DHT22;10194;50.824;7.134;2023-08-12T05:35:17;20.20;99.90
20068;DHT22;10194;50.824;7.134;2023-08-12T05:37:43;20.20;99.90
20068;DHT22;10194;50.824;7.134;2023-08-12T05:40:09;20.10;99.90
20068;DHT22;10194;50.824;7.134;2023-08-12T05:42:36;20.10;99.90
20068;DHT22;10194;50.824;7.134;2023-08-12T05:45:02;20.10;99.90
20068;DHT22;10194;50.824;7.134;2023-08-12T05:47:28;20.10;99.90
20068;DHT22;10194;50.824;7.134;2023-08-12T05:49:54;20.10;99.90
20068;DHT22;10194;50.824;7.134;2023-08-12T05:52:20;20.10;99.90
20068;DHT22;10194;50.824;7.134;2023-08-12T05:54:45;20.10;99.90
20068;DHT22;10194;50.824;7.134;2023-08-12T05:57:11;20.00;99.90
20068;DHT22;10194;50.824;7.134;2023-08-12T05:59:37;20.00;99.90
20068;DHT22;10194;50.824;7.134;2023-08-12T06:02:03;20.00;99.90
20068;DHT22;10194;50.824;7.134;2023-08-12T06:04:29;20.00;99.90
20068;DHT22;10194;50.824;7.134;2023-08-12T06:06:55;19.90;99.90
20068;DHT22;10194;50.824;7.134;2023-08-12T06:09:21;19.90;99.90
20068;DHT22;10194;50.824;7.134;2023-08-12T06:11:47;19.90;99.90
20068;DHT22;10194;50.824;7.134;2023-08-12T06:14:13;19.90;99.90
20068;DHT22;10194;50.824;7.134;2023-08-12T06:16:39;19.80;99.90
20068;DHT22;10194;50.824;7.134;2023-08-12T06:19:05;19.90;99.90
20068;DHT22;10194;50.824;7.134;2023-08-12T06:21:31;19.90;99.90
20068;DHT22;10194;50.824;7.134;2023-08-12T06:23:56;19.80;99.90
20068;DHT22;10194;50.824;7.134;2023-08-12T06:26:22;19.80;99.90
20068;DHT22;10194;50.824;7.134;2023-08-12T06:28:48;19.80;99.90
20068;DHT22;10194;50.824;7.134;2023-08-12T06:31:14;19.80;99.90
20068;DHT22;10194;50.824;7.134;2023-08-12T06:33:39;19.80;99.90
20068;DHT22;10194;50.824;7.134;2023-08-12T06:36:06;19.80;99.90
20068;DHT22;10194;50.824;7.134;2023-08-12T06:38:32;19.70;99.90
20068;DHT22;10194;50.824;7.134;2023-08-12T06:40:57;19.70;99.90
20068;DHT22;10194;50.824;7.134;2023-08-12T06:43:23;19.70;99.90
20068;DHT22;10194;50.824;7.134;2023-08-12T06:45:49;19.70;99.90
20068;DHT22;10194;50.824;7.134;2023-08-12T06:48:15;19.60;99.90
20068;DHT22;10194;50.824;7.134;2023-08-12T06:50:41;19.60;99.90
20068;DHT22;10194;50.824;7.134;2023-08-12T06:53:06;19.60;99.90
20068;DHT22;10194;50.824;7.134;2023-08-12T06:55:33;19.70;99.90
20068;DHT22;10194;50.824;7.134;2023-08-12T06:58:00;19.70;99.90
20068;DHT22;10194;50.824;7.134;2023-08-12T07:00:28;19.70;99.90
20068;DHT22;10194;50.824;7.134;2023-08-12T07:02:55;19.80;99.90
20068;DHT22;10194;50.824;7.134;2023-08-12T07:05:20;19.80;99.90
20068;DHT22;10194;50.824;7.134;2023-08-12T07:07:46;20.00;99.90
20068;DHT22;10194;50.824;7.134;2023-08-12T07:10:12;20.30;99.90
20068;DHT22;10194;50.824;7.134;2023-08-12T07:12:38;20.40;99.90
20068;DHT22;10194;50.824;7.134;2023-08-12T07:15:04;20.40;99.90
20068;DHT22;10194;50.824;7.134;2023-08-12T07:17:30;20.40;99.90
20068;DHT22;10194;50.824;7.134;2023-08-12T07:19:56;20.40;99.90
20068;DHT22;10194;50.824;7.134;2023-08-12T07:22:21;20.40;99.90
20068;DHT22;10194;50.824;7.134;2023-08-12T07:24:47;20.50;99.90
20068;DHT22;10194;50.824;7.134;2023-08-12T07:27:13;20.50;99.90
20068;DHT22;10194;50.824;7.134;2023-08-12T07:29:39;20.70;99.90
20068;DHT22;10194;50.824;7.134;2023-08-12T07:32:05;20.90;99.90
20068;DHT22;10194;50.824;7.134;2023-08-12T07:34:30;21.00;99.90
20068;DHT22;10194;50.824;7.134;2023-08-12T07:36:56;21.00;99.90
20068;DHT22;10194;50.824;7.134;2023-08-12T07:39:22;21.00;99.90
20068;DHT22;10194;50.824;7.134;2023-08-12T07:41:48;21.00;99.90
20068;DHT22;10194;50.824;7.134;2023-08-12T07:44:13;21.00;99.90
20068;DHT22;10194;50.824;7.134;2023-08-12T07:46:39;21.00;99.90
20068;DHT22;10194;50.824;7.134;2023-08-12T07:49:05;20.90;99.90
20068;DHT22;10194;50.824;7.134;2023-08-12T07:51:31;20.90;99.90
20068;DHT22;10194;50.824;7.134;2023-08-12T07:53:56;21.00;99.90
20068;DHT22;10194;50.824;7.134;2023-08-12T07:56:22;21.00;99.90
20068;DHT22;10194;50.824;7.134;2023-08-12T07:58:48;21.00;99.90
20068;DHT22;10194;50.824;7.134;2023-08-12T08:01:13;21.10;99.90
20068;DHT22;10194;50.824;7.134;2023-08-12T08:03:39;21.30;99.90
20068;DHT22;10194;50.824;7.134;2023-08-12T08:06:05;21.50;99.90
20068;DHT22;10194;50.824;7.134;2023-08-12T08:08:31;21.60;99.90
20068;DHT22;10194;50.824;7.134;2023-08-12T08:10:56;21.70;99.90
20068;DHT22;10194;50.824;7.134;2023-08-12T08:13:22;21.60;99.90
20068;DHT22;10194;50.824;7.134;2023-08-12T08:15:48;21.60;99.90
20068;DHT22;10194;50.824;7.134;2023-08-12T08:18:14;21.70;99.90
20068;DHT22;10194;50.824;7.134;2023-08-12T08:20:42;21.60;99.90
20068;DHT22;10194;50.824;7.134;2023-08-12T08:23:08;21.70;99.90
20068;DHT22;10194;50.824;7.134;2023-08-12T08:25:34;21.80;99.90
20068;DHT22;10194;50.824;7.134;2023-08-12T08:27:59;21.80;99.90
20068;DHT22;10194;50.824;7.134;2023-08-12T08:30:25;22.00;99.90
20068;DHT22;10194;50.824;7.134;2023-08-12T08:32:51;21.90;99.90
20068;DHT22;10194;50.824;7.134;2023-08-12T08:35:17;21.80;99.90
20068;DHT22;10194;50.824;7.134;2023-08-12T08:37:43;21.70;99.90
20068;DHT22;10194;50.824;7.134;2023-08-12T08:40:09;21.90;99.90
20068;DHT22;10194;50.824;7.134;2023-08-12T08:42:35;22.00;99.90
20068;DHT22;10194;50.824;7.134;2023-08-12T08:45:02;22.20;99.90
20068;DHT22;10194;50.824;7.134;2023-08-12T08:47:39;22.30;99.90
20068;DHT22;10194;50.824;7.134;2023-08-12T08:50:08;22.50;99.90
20068;DHT22;10194;50.824;7.134;2023-08-12T08:52:36;22.50;99.90
20068;DHT22;10194;50.824;7.134;2023-08-12T08:55:05;22.40;99.90
20068;DHT22;10194;50.824;7.134;2023-08-12T08:57:32;22.60;99.90
20068;DHT22;10194;50.824;7.134;2023-08-12T08:59:58;22.70;99.90
20068;DHT22;10194;50.824;7.134;2023-08-12T09:02:25;22.80;99.90
20068;DHT22;10194;50.824;7.134;2023-08-12T09:04:53;22.90;99.90
20068;DHT22;10194;50.824;7.134;2023-08-12T09:07:20;23.00;99.90
20068;DHT22;10194;50.824;7.134;2023-08-12T09:09:48;23.10;99.90
20068;DHT22;10194;50.824;7.134;2023-08-12T09:12:18;23.20;99.90
20068;DHT22;10194;50.824;7.134;2023-08-12T09:14:46;23.40;99.90
20068;DHT22;10194;50.824;7.134;2023-08-12T09:17:12;23.40;99.90
20068;DHT22;10194;50.824;7.134;2023-08-12T09:19:38;23.30;99.90
20068;DHT22;10194;50.824;7.134;2023-08-12T09:22:04;23.10;99.90
20068;DHT22;10194;50.824;7.134;2023-08-12T09:24:34;23.00;99.90
20068;DHT22;10194;50.824;7.134;2023-08-12T09:27:00;22.90;99.90
20068;DHT22;10194;50.824;7.134;2023-08-12T09:29:30;22.70;99.90
20068;DHT22;10194;50.824;7.134;2023-08-12T09:32:10;22.60;99.90
20068;DHT22;10194;50.824;7.134;2023-08-12T09:34:36;22.60;99.90
20068;DHT22;10194;50.824;7.134;2023-08-12T09:37:02;22.70;99.90
20068;DHT22;10194;50.824;7.134;2023-08-12T09:39:29;22.80;99.90
20068;DHT22;10194;50.824;7.134;2023-08-12T09:41:57;23.00;99.90
20068;DHT22;10194;50.824;7.134;2023-08-12T09:44:24;23.20;99.90
20068;DHT22;10194;50.824;7.134;2023-08-12T09:46:57;23.40;99.90
20068;DHT22;10194;50.824;7.134;2023-08-12T09:49:24;23.60;99.90
20068;DHT22;10194;50.824;7.134;2023-08-12T09:51:51;23.60;99.90
20068;DHT22;10194;50.824;7.134;2023-08-12T09:54:17;23.40;99.90
20068;DHT22;10194;50.824;7.134;2023-08-12T09:56:47;23.30;99.90
20068;DHT22;10194;50.824;7.134;2023-08-12T09:59:18;23.30;99.90
20068;DHT22;10194;50.824;7.134;2023-08-12T10:01:49;23.30;99.90
20068;DHT22;10194;50.824;7.134;2023-08-12T10:04:21;23.30;99.90
20068;DHT22;10194;50.824;7.134;2023-08-12T10:06:48;23.30;99.90
20068;DHT22;10194;50.824;7.134;2023-08-12T10:09:15;23.50;99.90
20068;DHT22;10194;50.824;7.134;2023-08-12T10:11:45;23.40;99.90
20068;DHT22;10194;50.824;7.134;2023-08-12T10:14:12;23.30;99.90
20068;DHT22;10194;50.824;7.134;2023-08-12T10:16:38;23.10;99.90
20068;DHT22;10194;50.824;7.134;2023-08-12T10:19:05;22.90;99.90
20068;DHT22;10194;50.824;7.134;2023-08-12T10:21:32;22.80;99.90
20068;DHT22;10194;50.824;7.134;2023-08-12T10:23:59;22.80;99.90
20068;DHT22;10194;50.824;7.134;2023-08-12T10:26:26;22.80;99.90
20068;DHT22;10194;50.824;7.134;2023-08-12T10:28:52;22.90;99.90
20068;DHT22;10194;50.824;7.134;2023-08-12T10:31:18;23.00;99.90
20068;DHT22;10194;50.824;7.134;2023-08-12T10:33:45;23.10;99.90
20068;DHT22;10194;50.824;7.134;2023-08-12T10:36:15;23.20;99.90
20068;DHT22;10194;50.824;7.134;2023-08-12T10:38:43;23.50;99.90
20068;DHT22;10194;50.824;7.134;2023-08-12T10:41:20;23.70;99.90
20068;DHT22;10194;50.824;7.134;2023-08-12T10:43:59;23.90;99.90
20068;DHT22;10194;50.824;7.134;2023-08-12T10:46:34;24.10;99.90
20068;DHT22;10194;50.824;7.134;2023-08-12T10:49:05;24.40;99.90
20068;DHT22;10194;50.824;7.134;2023-08-12T10:51:52;24.60;99.90
20068;DHT22;10194;50.824;7.134;2023-08-12T10:57:06;25.10;99.90
20068;DHT22;10194;50.824;7.134;2023-08-12T11:02:30;24.90;99.90
20068;DHT22;10194;50.824;7.134;2023-08-12T11:05:05;24.80;99.90
20068;DHT22;10194;50.824;7.134;2023-08-12T11:07:49;24.80;99.90
20068;DHT22;10194;50.824;7.134;2023-08-12T11:10:27;24.50;99.90
20068;DHT22;10194;50.824;7.134;2023-08-12T11:12:55;24.40;99.90
20068;DHT22;10194;50.824;7.134;2023-08-12T11:15:40;24.30;99.90
20068;DHT22;10194;50.824;7.134;2023-08-12T11:18:14;24.00;99.90
20068;DHT22;10194;50.824;7.134;2023-08-12T11:20:43;23.90;99.90
20068;DHT22;10194;50.824;7.134;2023-08-12T11:23:10;23.80;99.90
20068;DHT22;10194;50.824;7.134;2023-08-12T11:25:38;23.70;99.90
20068;DHT22;10194;50.824;7.134;2023-08-12T11:28:06;23.60;99.90
20068;DHT22;10194;50.824;7.134;2023-08-12T11:30:33;23.50;99.90
20068;DHT22;10194;50.824;7.134;2023-08-12T11:32:59;23.40;99.90
20068;DHT22;10194;50.824;7.134;2023-08-12T11:35:27;23.40;99.90
20068;DHT22;10194;50.824;7.134;2023-08-12T11:37:55;23.30;99.90
20068;DHT22;10194;50.824;7.134;2023-08-12T11:40:22;23.30;99.90
20068;DHT22;10194;50.824;7.134;2023-08-12T11:42:50;23.20;99.90
20068;DHT22;10194;50.824;7.134;2023-08-12T11:45:25;23.20;99.90
20068;DHT22;10194;50.824;7.134;2023-08-12T11:47:52;23.30;99.90
20068;DHT22;10194;50.824;7.134;2023-08-12T11:50:19;23.50;99.90
20068;DHT22;10194;50.824;7.134;2023-08-12T11:52:50;23.50;99.90
20068;DHT22;10194;50.824;7.134;2023-08-12T11:55:16;23.60;99.90
20068;DHT22;10194;50.824;7.134;2023-08-12T11:57:43;23.90;99.90
20068;DHT22;10194;50.824;7.134;2023-08-12T12:00:11;24.30;99.90
20068;DHT22;10194;50.824;7.134;2023-08-12T12:02:55;24.60;99.90
20068;DHT22;10194;50.824;7.134;2023-08-12T12:05:28;24.70;99.90
20068;DHT22;10194;50.824;7.134;2023-08-12T12:08:00;24.80;99.90
20068;DHT22;10194;50.824;7.134;2023-08-12T12:10:29;24.80;99.90
20068;DHT22;10194;50.824;7.134;2023-08-12T12:12:56;24.80;99.90
20068;DHT22;10194;50.824;7.134;2023-08-12T12:15:22;24.70;99.90
20068;DHT22;10194;50.824;7.134;2023-08-12T12:17:49;24.50;99.90
20068;DHT22;10194;50.824;7.134;2023-08-12T12:20:15;24.50;99.90
20068;DHT22;10194;50.824;7.134;2023-08-12T12:22:43;24.60;99.90
20068;DHT22;10194;50.824;7.134;2023-08-12T12:25:14;24.70;99.90
20068;DHT22;10194;50.824;7.134;2023-08-12T12:27:43;24.90;99.90
20068;DHT22;10194;50.824;7.134;2023-08-12T12:30:12;25.10;99.90
20068;DHT22;10194;50.824;7.134;2023-08-12T12:32:39;25.20;99.90
20068;DHT22;10194;50.824;7.134;2023-08-12T12:35:06;25.30;99.90
20068;DHT22;10194;50.824;7.134;2023-08-12T12:37:35;25.40;99.90
20068;DHT22;10194;50.824;7.134;2023-08-12T12:40:02;25.60;99.90
20068;DHT22;10194;50.824;7.134;2023-08-12T12:42:28;25.90;99.90
20068;DHT22;10194;50.824;7.134;2023-08-12T12:44:57;25.90;99.90
20068;DHT22;10194;50.824;7.134;2023-08-12T12:47:23;25.80;99.90
20068;DHT22;10194;50.824;7.134;2023-08-12T12:49:49;25.70;99.90
20068;DHT22;10194;50.824;7.134;2023-08-12T12:52:14;25.60;99.90
20068;DHT22;10194;50.824;7.134;2023-08-12T12:54:40;25.60;99.90
20068;DHT22;10194;50.824;7.134;2023-08-12T12:57:06;25.70;99.90
20068;DHT22;10194;50.824;7.134;2023-08-12T12:59:32;25.60;99.90
20068;DHT22;10194;50.824;7.134;2023-08-12T13:01:58;25.60;99.90
20068;DHT22;10194;50.824;7.134;2023-08-12T13:04:24;25.50;99.90
20068;DHT22;10194;50.824;7.134;2023-08-12T13:06:49;25.40;99.90
20068;DHT22;10194;50.824;7.134;2023-08-12T13:09:15;25.40;99.90
20068;DHT22;10194;50.824;7.134;2023-08-12T13:11:41;25.60;99.90
20068;DHT22;10194;50.824;7.134;2023-08-12T13:14:07;25.80;99.90
20068;DHT22;10194;50.824;7.134;2023-08-12T13:16:32;25.90;99.90
20068;DHT22;10194;50.824;7.134;2023-08-12T13:18:58;26.10;99.90
20068;DHT22;10194;50.824;7.134;2023-08-12T13:21:25;26.10;99.90
20068;DHT22;10194;50.824;7.134;2023-08-12T13:23:51;26.20;99.90
20068;DHT22;10194;50.824;7.134;2023-08-12T13:26:19;26.10;99.90
20068;DHT22;10194;50.824;7.134;2023-08-12T13:28:45;26.00;99.90
20068;DHT22;10194;50.824;7.134;2023-08-12T13:31:11;26.10;99.90
20068;DHT22;10194;50.824;7.134;2023-08-12T13:33:37;26.10;99.90
20068;DHT22;10194;50.824;7.134;2023-08-12T13:36:03;26.10;99.90
20068;DHT22;10194;50.824;7.134;2023-08-12T13:38:29;26.00;99.90
20068;DHT22;10194;50.824;7.134;2023-08-12T13:40:55;25.90;99.90
20068;DHT22;10194;50.824;7.134;2023-08-12T13:43:21;25.80;99.90
20068;DHT22;10194;50.824;7.134;2023-08-12T13:45:46;25.60;99.90
20068;DHT22;10194;50.824;7.134;2023-08-12T13:48:12;25.40;99.90
20068;DHT22;10194;50.824;7.134;2023-08-12T13:50:38;25.20;99.90
20068;DHT22;10194;50.824;7.134;2023-08-12T13:53:04;25.10;99.90
20068;DHT22;10194;50.824;7.134;2023-08-12T13:55:30;25.20;99.90
20068;DHT22;10194;50.824;7.134;2023-08-12T13:57:55;25.00;99.90
20068;DHT22;10194;50.824;7.134;2023-08-12T14:00:21;25.00;99.90
20068;DHT22;10194;50.824;7.134;2023-08-12T14:02:49;25.00;99.90
20068;DHT22;10194;50.824;7.134;2023-08-12T14:05:15;25.00;99.90
20068;DHT22;10194;50.824;7.134;2023-08-12T14:07:41;25.00;99.90
20068;DHT22;10194;50.824;7.134;2023-08-12T14:10:07;25.10;99.90
20068;DHT22;10194;50.824;7.134;2023-08-12T14:12:34;25.00;99.90
20068;DHT22;10194;50.824;7.134;2023-08-12T14:15:00;24.90;99.90
20068;DHT22;10194;50.824;7.134;2023-08-12T14:17:26;24.50;99.90
20068;DHT22;10194;50.824;7.134;2023-08-12T14:19:52;24.40;99.90
20068;DHT22;10194;50.824;7.134;2023-08-12T14:22:19;24.60;99.90
20068;DHT22;10194;50.824;7.134;2023-08-12T14:24:46;24.80;99.90
20068;DHT22;10194;50.824;7.134;2023-08-12T14:27:15;24.90;99.90
20068;DHT22;10194;50.824;7.134;2023-08-12T14:29:43;24.90;99.90
20068;DHT22;10194;50.824;7.134;2023-08-12T14:32:09;24.90;99.90
20068;DHT22;10194;50.824;7.134;2023-08-12T14:34:35;24.70;99.90
20068;DHT22;10194;50.824;7.134;2023-08-12T14:37:02;24.80;99.90
20068;DHT22;10194;50.824;7.134;2023-08-12T14:39:28;25.00;99.90
20068;DHT22;10194;50.824;7.134;2023-08-12T14:41:54;25.20;99.90
20068;DHT22;10194;50.824;7.134;2023-08-12T14:44:19;25.30;99.90
20068;DHT22;10194;50.824;7.134;2023-08-12T14:46:45;25.20;99.90
20068;DHT22;10194;50.824;7.134;2023-08-12T14:49:11;25.20;99.90
20068;DHT22;10194;50.824;7.134;2023-08-12T14:51:37;25.20;99.90
20068;DHT22;10194;50.824;7.134;2023-08-12T14:54:03;25.20;99.90
20068;DHT22;10194;50.824;7.134;2023-08-12T14:56:29;25.10;99.90
20068;DHT22;10194;50.824;7.134;2023-08-12T14:58:55;25.10;99.90
20068;DHT22;10194;50.824;7.134;2023-08-12T15:01:20;25.20;99.90
20068;DHT22;10194;50.824;7.134;2023-08-12T15:03:47;25.20;99.90
20068;DHT22;10194;50.824;7.134;2023-08-12T15:06:12;25.20;99.90
20068;DHT22;10194;50.824;7.134;2023-08-12T15:08:39;25.20;99.90
20068;DHT22;10194;50.824;7.134;2023-08-12T15:11:07;25.40;99.90
20068;DHT22;10194;50.824;7.134;2023-08-12T15:13:32;25.40;99.90
20068;DHT22;10194;50.824;7.134;2023-08-12T15:15:58;25.30;99.90
20068;DHT22;10194;50.824;7.134;2023-08-12T15:18:24;24.90;99.90
20068;DHT22;10194;50.824;7.134;2023-08-12T15:20:50;24.70;99.90
20068;DHT22;10194;50.824;7.134;2023-08-12T15:23:15;24.40;99.90
20068;DHT22;10194;50.824;7.134;2023-08-12T15:25:44;24.40;99.90
20068;DHT22;10194;50.824;7.134;2023-08-12T15:28:10;24.30;99.90
20068;DHT22;10194;50.824;7.134;2023-08-12T15:30:37;24.40;99.90
20068;DHT22;10194;50.824;7.134;2023-08-12T15:33:03;24.40;99.90
20068;DHT22;10194;50.824;7.134;2023-08-12T15:35:29;24.40;99.90